Time;durP1;ratioP1;P1;durP2;ratioP2;P2;SDS_P1;SDS_P2;PMS_P1;PMS_P2;Temp;Humidity;BMP_temperature;BMP_pressure;BME280_temperature;BME280_humidity;BME280_pressure;Samples;Min_cycle;Max_cycle;Signal;HPM_P1;HPM_P2
2021/12/23 00:02:04;;;;;;;52.27;21.17;;;;;;;;;;5068588;28;20025;-73
2021/12/23 00:04:29;;;;;;;55.97;20.33;;;;;;;;;;5068655;28;20464;-74
2021/12/23 00:06:55;;;;;;;46.40;19.63;;;;;;;;;;5067947;28;20070;-73
2021/12/23 00:09:24;;;;;;;54.73;22.17;;;;;;;;;;5068870;28;20024;-73
2021/12/23 00:11:49;;;;;;;47.10;20.60;;;;;;;;;;5067322;28;20029;-74
2021/12/23 00:14:15;;;;;;;43.07;19.23;;;;;;;;;;5069002;28;20024;-73
2021/12/23 00:16:46;;;;;;;55.67;20.77;;;;;;;;;;5068896;28;20391;-73
2021/12/23 00:19:35;;;;;;;52.03;20.00;;;;;;;;;;5067533;28;20033;-73
2021/12/23 00:24:46;;;;;;;51.23;19.67;;;;;;;;;;5071440;28;20545;-73
2021/12/23 00:27:12;;;;;;;48.03;19.23;;;;;;;;;;5071583;28;20063;-72
2021/12/23 00:29:39;;;;;;;58.07;21.30;;;;;;;;;;5072834;28;20021;-72
2021/12/23 00:32:07;;;;;;;54.63;20.97;;;;;;;;;;5072865;28;20023;-73
2021/12/23 00:34:33;;;;;;;48.10;21.23;;;;;;;;;;5072617;28;20045;-73
2021/12/23 00:37:00;;;;;;;52.60;20.93;;;;;;;;;;5072647;28;20021;-73
2021/12/23 00:39:27;;;;;;;53.47;22.70;;;;;;;;;;5071125;28;20028;-73
2021/12/23 00:41:54;;;;;;;49.33;20.33;;;;;;;;;;5072700;28;20029;-73
2021/12/23 00:44:20;;;;;;;58.40;22.77;;;;;;;;;;5070989;28;20031;-72
2021/12/23 00:46:45;;;;;;;52.77;21.20;;;;;;;;;;5070741;28;20025;-72
2021/12/23 00:49:11;;;;;;;55.37;21.57;;;;;;;;;;5072251;28;20032;-74
2021/12/23 00:51:37;;;;;;;59.03;21.60;;;;;;;;;;5071171;28;20460;-74
2021/12/23 00:54:06;;;;;;;64.73;21.67;;;;;;;;;;5071193;28;20120;-73
2021/12/23 00:56:36;;;;;;;49.90;21.07;;;;;;;;;;5070834;28;20028;-73
2021/12/23 00:59:09;;;;;;;53.33;21.43;;;;;;;;;;5070874;28;20029;-73
2021/12/23 01:01:35;;;;;;;53.83;21.67;;;;;;;;;;5072683;28;20023;-73
2021/12/23 01:04:00;;;;;;;61.47;23.73;;;;;;;;;;5070824;28;20134;-73
2021/12/23 01:06:26;;;;;;;63.43;24.97;;;;;;;;;;5070694;28;20445;-72
2021/12/23 01:08:51;;;;;;;61.70;23.27;;;;;;;;;;5070460;28;20028;-72
2021/12/23 01:11:17;;;;;;;60.23;24.73;;;;;;;;;;5070461;28;20360;-73
2021/12/23 01:13:58;;;;;;;46.97;21.53;;;;;;;;;;5070614;28;20032;-73
2021/12/23 01:16:36;;;;;;;56.47;24.27;;;;;;;;;;5070640;28;20021;-73
2021/12/23 01:19:03;;;;;;;63.30;24.73;;;;;;;;;;5072135;28;20027;-73
2021/12/23 01:21:28;;;;;;;61.13;22.37;;;;;;;;;;5070908;28;20432;-73
2021/12/23 01:23:57;;;;;;;64.20;25.13;;;;;;;;;;5071585;28;20020;-73
2021/12/23 01:26:23;;;;;;;57.70;23.33;;;;;;;;;;5070394;28;20033;-72
2021/12/23 01:28:56;;;;;;;63.77;24.43;;;;;;;;;;5070247;28;20111;-72
2021/12/23 01:31:23;;;;;;;58.97;22.87;;;;;;;;;;5073326;28;20028;-73
2021/12/23 01:33:49;;;;;;;56.20;22.73;;;;;;;;;;5071807;28;20045;-74
2021/12/23 01:36:14;;;;;;;52.47;22.97;;;;;;;;;;5069924;28;20346;-72
2021/12/23 01:38:40;;;;;;;55.60;23.03;;;;;;;;;;5070804;28;20052;-72
2021/12/23 01:41:06;;;;;;;55.33;24.87;;;;;;;;;;5070278;28;20024;-73
2021/12/23 01:43:32;;;;;;;50.30;21.27;;;;;;;;;;5071835;28;20029;-73
2021/12/23 01:45:57;;;;;;;58.33;22.30;;;;;;;;;;5070086;28;20029;-73
2021/12/23 01:48:23;;;;;;;60.87;23.40;;;;;;;;;;5070646;28;20031;-73
2021/12/23 01:50:49;;;;;;;58.80;23.07;;;;;;;;;;5071554;28;20016;-73
2021/12/23 01:53:16;;;;;;;53.47;20.93;;;;;;;;;;5069949;28;20119;-73
2021/12/23 01:55:43;;;;;;;54.53;21.60;;;;;;;;;;5071344;28;20021;-72
2021/12/23 01:58:10;;;;;;;55.80;23.10;;;;;;;;;;5071592;28;20035;-72
2021/12/23 02:00:37;;;;;;;62.23;23.50;;;;;;;;;;5069780;28;20115;-73
2021/12/23 02:03:04;;;;;;;48.27;20.27;;;;;;;;;;5070979;28;20029;-77
2021/12/23 02:05:30;;;;;;;56.90;19.27;;;;;;;;;;5069914;28;20032;-78
2021/12/23 02:07:57;;;;;;;52.10;21.13;;;;;;;;;;5069633;28;20078;-77
2021/12/23 02:10:23;;;;;;;47.47;21.00;;;;;;;;;;5071004;28;20058;-76
2021/12/23 02:12:49;;;;;;;63.93;22.53;;;;;;;;;;5070611;28;20419;-77
2021/12/23 02:15:16;;;;;;;61.97;24.67;;;;;;;;;;5071252;28;20024;-78
2021/12/23 02:17:42;;;;;;;63.27;26.53;;;;;;;;;;5069613;28;20440;-73
2021/12/23 02:20:10;;;;;;;69.93;25.97;;;;;;;;;;5070981;28;20052;-76
2021/12/23 02:22:36;;;;;;;63.97;24.33;;;;;;;;;;5070677;28;20450;-77
2021/12/23 02:25:04;;;;;;;60.97;23.80;;;;;;;;;;5069057;28;20664;-77
2021/12/23 02:27:29;;;;;;;59.07;23.43;;;;;;;;;;5070592;28;20028;-77
2021/12/23 02:29:55;;;;;;;49.13;21.13;;;;;;;;;;5070712;28;20388;-75
2021/12/23 02:32:21;;;;;;;57.27;22.93;;;;;;;;;;5070668;28;20357;-74
2021/12/23 02:34:46;;;;;;;50.70;22.20;;;;;;;;;;5070545;28;20105;-77
2021/12/23 02:37:13;;;;;;;51.30;21.60;;;;;;;;;;5069398;28;20139;-77
2021/12/23 02:39:40;;;;;;;52.77;21.10;;;;;;;;;;5071240;28;20031;-76
2021/12/23 02:42:06;;;;;;;58.13;22.13;;;;;;;;;;5069865;28;20033;-76
2021/12/23 02:44:32;;;;;;;56.03;20.27;;;;;;;;;;5069044;28;20024;-76
2021/12/23 02:46:58;;;;;;;47.57;20.47;;;;;;;;;;5070063;28;20025;-77
2021/12/23 02:49:25;;;;;;;53.07;18.67;;;;;;;;;;5070565;28;20043;-77
2021/12/23 02:51:51;;;;;;;46.33;19.50;;;;;;;;;;5068666;28;20484;-77
2021/12/23 02:54:16;;;;;;;51.40;18.67;;;;;;;;;;5068830;28;20052;-76
2021/12/23 02:56:42;;;;;;;49.63;19.60;;;;;;;;;;5070032;28;20798;-75
2021/12/23 02:59:08;;;;;;;57.40;21.13;;;;;;;;;;5068380;28;20391;-77
2021/12/23 03:01:33;;;;;;;50.00;20.63;;;;;;;;;;5068411;28;20406;-77
2021/12/23 03:03:59;;;;;;;46.80;19.37;;;;;;;;;;5069878;28;20103;-77
2021/12/23 03:06:25;;;;;;;51.97;20.23;;;;;;;;;;5069970;28;20028;-76
2021/12/23 03:08:57;;;;;;;43.50;18.13;;;;;;;;;;5069573;28;20028;-77
2021/12/23 03:11:25;;;;;;;43.90;18.15;;;;;;;;;;5068442;28;20078;-76
2021/12/23 03:13:51;;;;;;;46.33;18.27;;;;;;;;;;5068092;28;20032;-76
2021/12/23 03:16:36;;;;;;;47.97;17.97;;;;;;;;;;5067871;28;20472;-76
2021/12/23 03:19:03;;;;;;;44.87;19.73;;;;;;;;;;5068222;28;20032;-76
2021/12/23 03:21:29;;;;;;;44.47;18.00;;;;;;;;;;5068350;28;20429;-77
2021/12/23 03:23:56;;;;;;;45.77;19.13;;;;;;;;;;5067951;28;20511;-76
2021/12/23 03:26:24;;;;;;;49.13;19.67;;;;;;;;;;5069567;28;20016;-76
2021/12/23 03:28:49;;;;;;;46.90;17.40;;;;;;;;;;5067893;28;20492;-76
2021/12/23 03:31:15;;;;;;;46.47;18.47;;;;;;;;;;5067926;28;20023;-75
2021/12/23 03:33:41;;;;;;;39.77;16.57;;;;;;;;;;5067820;28;20105;-75
2021/12/23 03:36:06;;;;;;;56.07;19.53;;;;;;;;;;5069160;28;20064;-77
2021/12/23 03:38:32;;;;;;;56.53;21.43;;;;;;;;;;5067947;28;20531;-77
2021/12/23 03:40:58;;;;;;;46.03;18.33;;;;;;;;;;5069053;28;20024;-76
2021/12/23 03:43:23;;;;;;;46.97;18.97;;;;;;;;;;5067983;28;20055;-77
2021/12/23 03:45:50;;;;;;;43.13;17.13;;;;;;;;;;5067835;28;20051;-75
2021/12/23 03:48:18;;;;;;;44.47;17.70;;;;;;;;;;5068050;28;20297;-76
2021/12/23 03:50:45;;;;;;;43.67;18.27;;;;;;;;;;5069266;28;20031;-76
2021/12/23 03:53:10;;;;;;;45.73;17.77;;;;;;;;;;5067882;28;20072;-76
2021/12/23 03:55:36;;;;;;;36.13;16.80;;;;;;;;;;5068756;28;20516;-76
2021/12/23 03:58:03;;;;;;;44.47;16.50;;;;;;;;;;5069772;28;20016;-77
2021/12/23 04:00:29;;;;;;;44.60;16.53;;;;;;;;;;5068920;28;20475;-76
2021/12/23 04:02:55;;;;;;;42.87;18.10;;;;;;;;;;5067876;28;20058;-76
2021/12/23 04:05:21;;;;;;;40.43;16.40;;;;;;;;;;5067788;28;20029;-75
2021/12/23 04:07:48;;;;;;;39.23;17.03;;;;;;;;;;5067992;28;20083;-77
2021/12/23 04:10:17;;;;;;;48.23;16.63;;;;;;;;;;5069132;28;20055;-77
2021/12/23 04:12:45;;;;;;;46.83;16.60;;;;;;;;;;5069258;28;20029;-74
2021/12/23 04:15:11;;;;;;;52.90;18.40;;;;;;;;;;5068849;28;20102;-77
2021/12/23 04:17:36;;;;;;;46.83;16.57;;;;;;;;;;5069197;28;20070;-76
2021/12/23 04:20:17;;;;;;;44.97;18.50;;;;;;;;;;5068924;28;20024;-77
2021/12/23 04:22:43;;;;;;;33.07;16.67;;;;;;;;;;5067900;28;20162;-75
2021/12/23 04:25:10;;;;;;;47.73;21.07;;;;;;;;;;5069127;28;20478;-76
2021/12/23 04:27:35;;;;;;;38.03;18.10;;;;;;;;;;5067616;28;20387;-75
2021/12/23 04:30:01;;;;;;;42.83;17.73;;;;;;;;;;5067766;28;20029;-76
2021/12/23 04:32:27;;;;;;;38.63;15.10;;;;;;;;;;5067390;28;20138;-77
2021/12/23 04:34:52;;;;;;;48.97;18.07;;;;;;;;;;5069061;28;20483;-77
2021/12/23 04:37:18;;;;;;;38.23;17.67;;;;;;;;;;5069861;28;20040;-77
2021/12/23 04:39:43;;;;;;;34.17;15.80;;;;;;;;;;5069146;28;20506;-76
2021/12/23 04:42:09;;;;;;;44.43;17.00;;;;;;;;;;5067501;28;20471;-77
2021/12/23 04:44:34;;;;;;;38.13;16.40;;;;;;;;;;5069247;28;20047;-74
2021/12/23 04:47:00;;;;;;;38.10;17.13;;;;;;;;;;5067801;28;20055;-76
2021/12/23 04:49:25;;;;;;;48.37;18.83;;;;;;;;;;5070945;28;20530;-78
2021/12/23 04:51:51;;;;;;;43.23;17.53;;;;;;;;;;5076518;28;20024;-76
2021/12/23 04:54:16;;;;;;;35.50;14.97;;;;;;;;;;5069481;28;20038;-76
2021/12/23 04:56:42;;;;;;;39.37;16.20;;;;;;;;;;5069026;28;20460;-78
2021/12/23 04:59:07;;;;;;;42.47;17.03;;;;;;;;;;5069187;28;20133;-76
2021/12/23 05:01:33;;;;;;;33.83;14.63;;;;;;;;;;5068435;28;20033;-77
2021/12/23 05:03:59;;;;;;;40.03;14.90;;;;;;;;;;5067501;28;20048;-75
2021/12/23 05:06:25;;;;;;;36.27;16.70;;;;;;;;;;5068900;28;20029;-76
2021/12/23 05:08:51;;;;;;;37.20;16.47;;;;;;;;;;5067542;28;20021;-77
2021/12/23 05:11:17;;;;;;;38.40;14.80;;;;;;;;;;5070063;28;20159;-77
2021/12/23 05:13:43;;;;;;;40.87;17.47;;;;;;;;;;5071634;28;20025;-76
2021/12/23 05:16:09;;;;;;;37.10;15.33;;;;;;;;;;5074709;28;20043;-77
2021/12/23 05:18:36;;;;;;;37.20;15.97;;;;;;;;;;5071177;28;20484;-76
2021/12/23 05:21:05;;;;;;;41.50;16.10;;;;;;;;;;5070560;28;20391;-77
2021/12/23 05:23:31;;;;;;;34.77;14.73;;;;;;;;;;5070467;28;20043;-77
2021/12/23 05:25:57;;;;;;;38.73;16.10;;;;;;;;;;5071657;28;20028;-77
2021/12/23 05:28:22;;;;;;;39.63;15.50;;;;;;;;;;5070219;28;20512;-76
2021/12/23 05:30:48;;;;;;;43.43;16.13;;;;;;;;;;5070292;28;20133;-78
2021/12/23 05:33:13;;;;;;;36.30;15.33;;;;;;;;;;5071402;28;20127;-75
2021/12/23 05:35:39;;;;;;;43.00;15.83;;;;;;;;;;5071535;28;20028;-76
2021/12/23 05:38:05;;;;;;;65.53;24.23;;;;;;;;;;5071349;28;20065;-77
2021/12/23 05:40:30;;;;;;;43.47;17.00;;;;;;;;;;5071547;28;20103;-77
2021/12/23 05:42:57;;;;;;;36.70;15.67;;;;;;;;;;5069775;28;20028;-76
2021/12/23 05:45:23;;;;;;;33.93;16.90;;;;;;;;;;5069990;28;20017;-74
2021/12/23 05:47:51;;;;;;;43.33;17.17;;;;;;;;;;5071176;28;20159;-75
2021/12/23 05:50:19;;;;;;;40.17;15.73;;;;;;;;;;5071338;28;20298;-78
2021/12/23 05:52:45;;;;;;;37.47;16.77;;;;;;;;;;5069936;28;20029;-76
2021/12/23 05:55:13;;;;;;;39.73;16.33;;;;;;;;;;5069644;28;20042;-78
2021/12/23 05:57:39;;;;;;;51.20;19.90;;;;;;;;;;5053184;28;20119;-77
2021/12/23 06:00:11;;;;;;;54.03;20.57;;;;;;;;;;5071513;28;20265;-75
2021/12/23 06:02:37;;;;;;;59.43;26.87;;;;;;;;;;5069770;28;20268;-76
2021/12/23 06:05:05;;;;;;;41.13;19.07;;;;;;;;;;5071130;28;20036;-77
2021/12/23 06:07:31;;;;;;;41.30;17.17;;;;;;;;;;5071222;28;20388;-77
2021/12/23 06:09:56;;;;;;;41.43;18.77;;;;;;;;;;5070775;28;20028;-76
2021/12/23 06:12:22;;;;;;;45.37;20.57;;;;;;;;;;5069575;28;20028;-76
2021/12/23 06:14:47;;;;;;;52.03;18.40;;;;;;;;;;5069537;28;20028;-77
2021/12/23 06:17:13;;;;;;;43.37;19.80;;;;;;;;;;5070634;28;20505;-77
2021/12/23 06:19:38;;;;;;;49.57;18.63;;;;;;;;;;5069548;28;20472;-76
2021/12/23 06:22:05;;;;;;;45.20;17.03;;;;;;;;;;5068982;28;20119;-77
2021/12/23 06:24:32;;;;;;;37.57;16.03;;;;;;;;;;5069063;28;20029;-76
2021/12/23 06:26:58;;;;;;;39.57;15.33;;;;;;;;;;5069049;28;20028;-77
2021/12/23 06:29:23;;;;;;;48.20;16.23;;;;;;;;;;5070712;28;20388;-75
2021/12/23 06:31:49;;;;;;;45.33;16.20;;;;;;;;;;5069007;28;20468;-77
2021/12/23 06:34:14;;;;;;;49.90;22.43;;;;;;;;;;5070008;28;20389;-78
2021/12/23 06:36:43;;;;;;;43.07;17.47;;;;;;;;;;5071021;28;20071;-76
2021/12/23 06:39:08;;;;;;;34.33;16.37;;;;;;;;;;5070189;28;20476;-76
2021/12/23 06:41:34;;;;;;;37.77;15.67;;;;;;;;;;5070537;28;20035;-77
2021/12/23 06:44:00;;;;;;;48.07;18.03;;;;;;;;;;5070100;28;20020;-75
2021/12/23 06:46:25;;;;;;;49.23;18.73;;;;;;;;;;5068836;28;20484;-76
2021/12/23 06:48:51;;;;;;;44.17;17.77;;;;;;;;;;5068867;28;20028;-79
2021/12/23 06:51:16;;;;;;;51.23;16.70;;;;;;;;;;5068648;28;20423;-74
2021/12/23 06:53:42;;;;;;;48.13;19.70;;;;;;;;;;5068664;28;20089;-77
2021/12/23 06:56:08;;;;;;;43.03;16.27;;;;;;;;;;5068357;28;20028;-75
2021/12/23 06:58:36;;;;;;;44.67;16.17;;;;;;;;;;5070222;28;20107;-77
2021/12/23 07:01:07;;;;;;;38.53;16.67;;;;;;;;;;5068969;28;20028;-80
2021/12/23 07:04:03;;;;;;;42.93;16.40;;;;;;;;;;5069310;28;20052;-77
2021/12/23 07:06:26;;;;;;;39.33;16.17;;;;;;;;;;5070021;28;20024;-80
2021/12/23 07:08:54;;;;;;;42.30;15.40;;;;;;;;;;5068821;28;20460;-79
2021/12/23 07:11:20;;;;;;;42.50;16.33;;;;;;;;;;5070102;28;20032;-77
2021/12/23 07:13:45;;;;;;;39.83;16.93;;;;;;;;;;5068614;28;20024;-77
2021/12/23 07:16:12;;;;;;;41.83;17.27;;;;;;;;;;5069187;28;20032;-78
2021/12/23 07:18:37;;;;;;;41.17;16.20;;;;;;;;;;5068539;28;20024;-78
2021/12/23 07:21:03;;;;;;;42.67;17.00;;;;;;;;;;5068019;28;20086;-78
2021/12/23 07:23:28;;;;;;;40.80;15.67;;;;;;;;;;5071233;28;20427;-77
2021/12/23 07:25:54;;;;;;;43.87;16.70;;;;;;;;;;5069911;28;20021;-77
2021/12/23 07:28:19;;;;;;;39.53;15.30;;;;;;;;;;5068108;28;20020;-77
2021/12/23 07:30:45;;;;;;;37.60;15.30;;;;;;;;;;5068336;28;20028;-78
2021/12/23 07:33:11;;;;;;;37.83;15.77;;;;;;;;;;5066979;28;20522;-75
2021/12/23 07:35:36;;;;;;;44.67;15.90;;;;;;;;;;5068187;28;20135;-78
2021/12/23 07:38:02;;;;;;;37.20;15.13;;;;;;;;;;5070464;28;20088;-77
2021/12/23 07:40:30;;;;;;;36.80;15.73;;;;;;;;;;5068510;28;20017;-74
2021/12/23 07:43:09;;;;;;;37.33;15.03;;;;;;;;;;5069367;28;20356;-76
2021/12/23 07:45:35;;;;;;;45.33;15.73;;;;;;;;;;5068033;28;20021;-77
2021/12/23 07:48:00;;;;;;;38.57;16.20;;;;;;;;;;5068504;28;20125;-73
2021/12/23 07:50:26;;;;;;;37.80;15.80;;;;;;;;;;5070854;28;20476;-78
2021/12/23 07:52:52;;;;;;;36.23;15.00;;;;;;;;;;5069625;28;20058;-76
2021/12/23 07:55:20;;;;;;;34.93;14.13;;;;;;;;;;5075018;28;20515;-75
2021/12/23 07:57:46;;;;;;;43.53;16.33;;;;;;;;;;5074820;28;20423;-77
2021/12/23 08:00:14;;;;;;;37.93;16.47;;;;;;;;;;5069531;28;20024;-76
2021/12/23 08:02:41;;;;;;;34.80;14.97;;;;;;;;;;5068001;28;20032;-77
2021/12/23 08:05:08;;;;;;;48.90;16.77;;;;;;;;;;5067789;28;20052;-76
2021/12/23 08:07:34;;;;;;;38.23;16.07;;;;;;;;;;5069253;28;20035;-78
2021/12/23 08:10:00;;;;;;;34.90;14.87;;;;;;;;;;5067720;28;20035;-74
2021/12/23 08:12:26;;;;;;;40.10;15.10;;;;;;;;;;5067838;28;20029;-78
2021/12/23 08:14:51;;;;;;;39.67;17.07;;;;;;;;;;5069418;28;20039;-75
2021/12/23 08:17:17;;;;;;;36.57;14.73;;;;;;;;;;5069182;28;20107;-76
2021/12/23 08:19:42;;;;;;;45.10;17.80;;;;;;;;;;5067931;28;20204;-77
2021/12/23 08:22:08;;;;;;;41.10;15.80;;;;;;;;;;5068258;28;20120;-77
2021/12/23 08:24:34;;;;;;;40.73;15.13;;;;;;;;;;5070320;28;20021;-76
2021/12/23 08:27:00;;;;;;;39.50;15.63;;;;;;;;;;5068930;28;20028;-76
2021/12/23 08:29:27;;;;;;;39.17;16.10;;;;;;;;;;5068004;28;20024;-77
2021/12/23 08:31:53;;;;;;;41.37;15.63;;;;;;;;;;5067815;28;20024;-74
2021/12/23 08:34:21;;;;;;;40.93;17.23;;;;;;;;;;5067314;28;20393;-76
2021/12/23 08:36:47;;;;;;;41.57;15.73;;;;;;;;;;5068784;28;20169;-78
2021/12/23 08:39:14;;;;;;;47.70;18.00;;;;;;;;;;5068951;28;20493;-76
2021/12/23 08:41:39;;;;;;;42.40;16.87;;;;;;;;;;5069089;28;20028;-76
2021/12/23 08:44:05;;;;;;;41.90;16.47;;;;;;;;;;5069198;28;20025;-75
2021/12/23 08:46:30;;;;;;;37.63;16.07;;;;;;;;;;5072545;28;20074;-77
2021/12/23 08:48:56;;;;;;;40.80;16.03;;;;;;;;;;5055018;28;20032;-77
2021/12/23 08:51:22;;;;;;;38.87;17.13;;;;;;;;;;5072941;28;20024;-76
2021/12/23 08:53:48;;;;;;;39.20;15.73;;;;;;;;;;5072599;28;20024;-78
2021/12/23 08:56:13;;;;;;;40.30;17.30;;;;;;;;;;5071122;28;20078;-75
2021/12/23 08:58:40;;;;;;;44.43;16.53;;;;;;;;;;5071224;28;20070;-76
2021/12/23 09:01:06;;;;;;;44.27;18.67;;;;;;;;;;5071003;28;20035;-75
2021/12/23 09:03:32;;;;;;;43.23;17.03;;;;;;;;;;5054618;28;20247;-77
2021/12/23 09:05:59;;;;;;;49.30;17.17;;;;;;;;;;5072577;28;20028;-74
2021/12/23 09:08:25;;;;;;;45.47;15.80;;;;;;;;;;5072516;28;20522;-77
2021/12/23 09:10:52;;;;;;;41.30;17.17;;;;;;;;;;5070802;28;20024;-74
2021/12/23 09:13:19;;;;;;;65.50;24.37;;;;;;;;;;5070713;28;20115;-78
2021/12/23 09:15:44;;;;;;;47.10;18.87;;;;;;;;;;5087408;28;20667;-75
2021/12/23 09:18:11;;;;;;;45.73;18.57;;;;;;;;;;5070540;28;20032;-76
2021/12/23 09:20:37;;;;;;;37.97;15.57;;;;;;;;;;5054231;28;20437;-78
2021/12/23 09:23:06;;;;;;;45.00;17.47;;;;;;;;;;5070812;28;20056;-76
2021/12/23 09:25:33;;;;;;;43.03;18.63;;;;;;;;;;5070486;28;20043;-75
2021/12/23 09:28:23;;;;;;;43.50;18.10;;;;;;;;;;5054286;28;20016;-76
2021/12/23 09:33:33;;;;;;;39.57;18.07;;;;;;;;;;5073896;28;20079;-78
2021/12/23 09:35:59;;;;;;;36.67;17.13;;;;;;;;;;5054410;28;20052;-78
2021/12/23 09:38:27;;;;;;;46.40;18.20;;;;;;;;;;5071311;28;20476;-78
2021/12/23 09:41:05;;;;;;;48.40;19.43;;;;;;;;;;5072302;28;20515;-77
2021/12/23 09:43:32;;;;;;;43.83;16.90;;;;;;;;;;5070199;28;20028;-77
2021/12/23 09:45:58;;;;;;;45.07;17.40;;;;;;;;;;5070402;28;20086;-77
2021/12/23 09:48:28;;;;;;;44.90;16.47;;;;;;;;;;5071441;28;20051;-77
2021/12/23 09:50:56;;;;;;;42.73;16.73;;;;;;;;;;5054091;28;20033;-78
2021/12/23 09:53:22;;;;;;;44.57;17.10;;;;;;;;;;5070981;28;20077;-78
2021/12/23 09:55:50;;;;;;;43.70;17.10;;;;;;;;;;5072439;28;20413;-79
2021/12/23 09:58:16;;;;;;;47.80;18.57;;;;;;;;;;5075038;28;20028;-76
2021/12/23 10:00:46;;;;;;;43.10;17.77;;;;;;;;;;5080641;28;20487;-76
2021/12/23 10:03:17;;;;;;;54.07;19.00;;;;;;;;;;5078912;28;20020;-77
2021/12/23 10:05:43;;;;;;;45.05;18.02;;;;;;;;;;5076045;28;20028;-78
2021/12/23 10:08:11;;;;;;;52.47;19.30;;;;;;;;;;5071003;28;20043;-74
2021/12/23 10:10:44;;;;;;;52.50;18.63;;;;;;;;;;5070058;28;20024;-78
2021/12/23 10:28:00;;;;;;;42.67;17.47;;;;;;;;;;5068929;28;20043;-78
2021/12/23 10:38:14;;;;;;;48.50;16.77;;;;;;;;;;5072895;28;20039;-77
2021/12/23 10:40:47;;;;;;;51.47;17.90;;;;;;;;;;5073722;28;20032;-78
2021/12/23 10:43:33;;;;;;;42.37;17.53;;;;;;;;;;5052721;28;20036;-78
2021/12/23 10:46:16;;;;;;;46.93;19.23;;;;;;;;;;5070852;28;20094;-78
2021/12/23 11:00:27;;;;;;;37.60;16.53;;;;;;;;;;5070743;28;20058;-76
2021/12/23 11:03:26;;;;;;;36.83;16.13;;;;;;;;;;5070463;28;20476;-77
2021/12/23 11:06:11;;;;;;;47.50;17.67;;;;;;;;;;5066137;28;20035;-78
2021/12/23 11:08:52;;;;;;;46.77;17.60;;;;;;;;;;5068851;28;20119;-78
2021/12/23 11:43:57;;;;;;;39.07;17.33;;;;;;;;;;5068246;28;20028;-73
2021/12/23 11:46:32;;;;;;;48.00;17.30;;;;;;;;;;5068092;28;20052;-73
2021/12/23 11:49:00;;;;;;;42.03;17.50;;;;;;;;;;5067639;28;20059;-73
2021/12/23 11:51:34;;;;;;;55.17;17.63;;;;;;;;;;5069146;28;20058;-73
2021/12/23 11:54:03;;;;;;;47.80;18.33;;;;;;;;;;5067830;28;20122;-75
2021/12/23 11:56:31;;;;;;;49.97;20.17;;;;;;;;;;5084482;28;20123;-72
2021/12/23 11:59:00;;;;;;;41.30;18.93;;;;;;;;;;5068899;28;20028;-75
2021/12/23 12:01:28;;;;;;;46.40;20.87;;;;;;;;;;5068812;28;20032;-74
2021/12/23 12:03:59;;;;;;;40.20;17.07;;;;;;;;;;5068980;28;20054;-74
2021/12/23 12:06:31;;;;;;;44.77;17.43;;;;;;;;;;5068695;28;20032;-73
2021/12/23 12:09:18;;;;;;;43.40;19.23;;;;;;;;;;5050856;28;20032;-74
2021/12/23 12:12:03;;;;;;;49.63;19.40;;;;;;;;;;5067515;28;20033;-73
2021/12/23 12:14:40;;;;;;;44.00;18.00;;;;;;;;;;5069099;28;20024;-73
2021/12/23 12:17:30;;;;;;;45.83;19.13;;;;;;;;;;5067498;28;20036;-74
2021/12/23 12:20:11;;;;;;;47.63;19.47;;;;;;;;;;5068813;28;20404;-73
2021/12/23 12:22:51;;;;;;;49.83;20.40;;;;;;;;;;5071382;28;20115;-75
2021/12/23 12:25:22;;;;;;;43.63;18.93;;;;;;;;;;5071799;28;20123;-73
2021/12/23 12:27:48;;;;;;;42.25;18.02;;;;;;;;;;5072528;28;20067;-74
2021/12/23 12:30:17;;;;;;;47.20;17.50;;;;;;;;;;5071602;28;20055;-73
2021/12/23 12:32:44;;;;;;;41.40;19.00;;;;;;;;;;5071039;28;20024;-75
2021/12/23 12:35:19;;;;;;;45.03;19.20;;;;;;;;;;5071193;28;20403;-73
2021/12/23 12:37:46;;;;;;;50.00;20.10;;;;;;;;;;5071127;28;20033;-75
2021/12/23 12:40:12;;;;;;;43.80;18.13;;;;;;;;;;5071002;28;20028;-73
2021/12/23 12:42:44;;;;;;;42.00;19.70;;;;;;;;;;5071072;28;20041;-73
2021/12/23 12:45:14;;;;;;;;;;;;;;;;;;5071782;28;20058;-73
2021/12/23 12:47:49;;;;;;;37.87;16.70;;;;;;;;;;5073040;28;19915;-73
2021/12/23 12:50:21;;;;;;;46.77;17.07;;;;;;;;;;5073900;28;20043;-74
2021/12/23 12:52:50;;;;;;;47.35;20.23;;;;;;;;;;5070912;28;20494;-74
2021/12/23 12:55:26;;;;;;;42.17;18.20;;;;;;;;;;5072257;28;20078;-73
2021/12/23 12:57:57;;;;;;;44.07;18.07;;;;;;;;;;5072588;28;20021;-73
2021/12/23 13:00:40;;;;;;;49.15;18.05;;;;;;;;;;5070810;28;20128;-74
2021/12/23 13:03:07;;;;;;;56.87;18.90;;;;;;;;;;5072705;28;20109;-75
2021/12/23 13:05:42;;;;;;;47.90;18.60;;;;;;;;;;5071184;28;20365;-73
2021/12/23 13:08:34;;;;;;;42.20;17.03;;;;;;;;;;5072732;28;20112;-74
2021/12/23 13:11:08;;;;;;;40.50;17.40;;;;;;;;;;5071232;28;20105;-74
2021/12/23 13:13:42;;;;;;;51.00;19.37;;;;;;;;;;5070785;28;20028;-73
2021/12/23 13:16:23;;;;;;;46.80;16.73;;;;;;;;;;5088421;28;20043;-74
2021/12/23 13:19:17;;;;;;;43.70;17.97;;;;;;;;;;5074253;28;20028;-74
2021/12/23 13:21:46;;;;;;;45.57;17.90;;;;;;;;;;5070608;28;20052;-74
2021/12/23 13:24:14;;;;;;;45.63;17.67;;;;;;;;;;5070639;28;20058;-73
2021/12/23 13:26:39;;;;;;;39.20;17.93;;;;;;;;;;5071683;28;20536;-73
2021/12/23 13:29:08;;;;;;;42.20;17.47;;;;;;;;;;5070582;28;20107;-74
2021/12/23 13:31:37;;;;;;;42.63;18.27;;;;;;;;;;5069630;28;20613;-74
2021/12/23 13:34:16;;;;;;;48.67;18.60;;;;;;;;;;5070027;28;20049;-73
2021/12/23 13:36:44;;;;;;;46.50;19.00;;;;;;;;;;5071629;28;20044;-73
2021/12/23 13:39:17;;;;;;;49.33;18.10;;;;;;;;;;5070368;28;20074;-75
2021/12/23 13:41:48;;;;;;;48.60;19.13;;;;;;;;;;5070723;28;20059;-74
2021/12/23 13:44:14;;;;;;;47.92;20.75;;;;;;;;;;5072215;28;20091;-74
2021/12/23 13:46:40;;;;;;;39.17;17.17;;;;;;;;;;5070537;28;20032;-74
2021/12/23 13:49:07;;;;;;;40.77;19.00;;;;;;;;;;5053819;28;20028;-74
2021/12/23 13:51:39;;;;;;;42.67;17.53;;;;;;;;;;5070025;28;20032;-73
2021/12/23 13:54:12;;;;;;;46.67;18.13;;;;;;;;;;5071554;28;20028;-75
2021/12/23 13:56:41;;;;;;;41.47;18.67;;;;;;;;;;5071528;28;20040;-74
2021/12/23 13:59:11;;;;;;;49.43;18.23;;;;;;;;;;5070934;28;20040;-74
2021/12/23 14:01:57;;;;;;;48.27;18.40;;;;;;;;;;5071439;28;20028;-74
2021/12/23 14:04:41;;;;;;;42.50;16.63;;;;;;;;;;5070605;28;20170;-73
2021/12/23 14:07:14;;;;;;;36.07;15.73;;;;;;;;;;5072171;28;20082;-74
2021/12/23 14:09:48;;;;;;;52.93;19.00;;;;;;;;;;5071091;28;20059;-74
2021/12/23 14:12:19;;;;;;;50.97;18.10;;;;;;;;;;5053957;28;20433;-74
2021/12/23 14:15:33;;;;;;;45.27;19.30;;;;;;;;;;5070618;28;20074;-75
2021/12/23 14:18:02;;;;;;;41.83;18.40;;;;;;;;;;5067141;28;20040;-74
2021/12/23 14:23:22;;;;;;;47.33;16.47;;;;;;;;;;5071530;28;20545;-77
2021/12/23 14:25:53;;;;;;;42.13;17.67;;;;;;;;;;5070033;28;20082;-75
2021/12/23 14:28:23;;;;;;;38.25;16.65;;;;;;;;;;5069900;28;20375;-75
2021/12/23 14:30:59;;;;;;;41.77;16.33;;;;;;;;;;5036403;28;20456;-74
2021/12/23 14:33:28;;;;;;;48.23;19.20;;;;;;;;;;5068751;28;20048;-74
2021/12/23 14:35:57;;;;;;;35.73;18.07;;;;;;;;;;5086222;28;20102;-75
2021/12/23 14:38:28;;;;;;;48.13;17.40;;;;;;;;;;5070331;28;20021;-75
2021/12/23 14:41:03;;;;;;;44.67;17.43;;;;;;;;;;5069488;28;20048;-74
2021/12/23 14:43:58;;;;;;;46.67;19.07;;;;;;;;;;5068873;28;20250;-76
2021/12/23 14:46:43;;;;;;;39.10;18.13;;;;;;;;;;5070847;28;20035;-75
2021/12/23 14:51:44;;;;;;;40.57;18.53;;;;;;;;;;5070908;28;20123;-74
2021/12/23 14:54:13;;;;;;;47.80;20.33;;;;;;;;;;5070217;28;20036;-74
2021/12/23 14:56:43;;;;;;;48.80;19.50;;;;;;;;;;5068513;28;20063;-74
2021/12/23 14:59:10;;;;;;;44.40;18.20;;;;;;;;;;5052984;28;20066;-75
2021/12/23 15:01:38;;;;;;;44.30;18.87;;;;;;;;;;5070682;28;20024;-75
2021/12/23 15:04:06;;;;;;;48.80;19.40;;;;;;;;;;5053222;28;20031;-75
2021/12/23 15:06:33;;;;;;;44.93;18.13;;;;;;;;;;5072784;28;20035;-74
2021/12/23 15:08:58;;;;;;;45.47;18.60;;;;;;;;;;5072878;28;20024;-74
2021/12/23 15:11:29;;;;;;;49.13;16.43;;;;;;;;;;5074158;28;20035;-74
2021/12/23 15:13:54;;;;;;;50.50;19.27;;;;;;;;;;5071295;28;20079;-75
2021/12/23 15:16:23;;;;;;;44.23;17.80;;;;;;;;;;5070841;28;20028;-76
2021/12/23 15:19:07;;;;;;;48.43;18.40;;;;;;;;;;5068958;28;20032;-74
2021/12/23 15:21:37;;;;;;;49.83;19.97;;;;;;;;;;5068888;28;20501;-75
2021/12/23 15:24:26;;;;;;;46.60;19.13;;;;;;;;;;5068542;28;20028;-74
2021/12/23 15:26:54;;;;;;;40.90;18.97;;;;;;;;;;5069866;28;20076;-75
2021/12/23 15:29:24;;;;;;;53.23;20.93;;;;;;;;;;5069919;28;20110;-76
2021/12/23 15:31:57;;;;;;;44.13;17.50;;;;;;;;;;5069875;28;20036;-75
2021/12/23 15:34:27;;;;;;;40.40;19.42;;;;;;;;;;5069372;28;20131;-75
2021/12/23 15:36:55;;;;;;;48.27;20.63;;;;;;;;;;5068460;28;20032;-75
2021/12/23 15:39:33;;;;;;;51.37;21.20;;;;;;;;;;5068547;28;20024;-75
2021/12/23 15:42:00;;;;;;;43.77;19.47;;;;;;;;;;5070389;28;20047;-76
2021/12/23 15:44:28;;;;;;;43.80;19.33;;;;;;;;;;5070919;28;20063;-74
2021/12/23 15:46:56;;;;;;;39.40;18.27;;;;;;;;;;5051737;28;20392;-75